Avignon-Caumont Airport

Airport
ICAO code: 
LFMV
IATA Code: 
AVN
Summary
ICAO Region: 
EUR
Territory: 
Location: 
, Provence-Alpes-Cote d'Azur
Serving: 
Avignon
Elevation: 
124 ft
Coordinates: 
Aerial View: 
43° 54' 26.28" N, 4° 54' 6.592" E
Metar
Observation
LFMV 060530Z AUTO 35014KT 9999 FEW064 04/01 Q1011 TEMPO 34015G25KT
Station
CAUMONT
Date/Time
2021-12-06 05:30:00
Wind direction
350°
Wind speed
14 kts
Lowest cloud amount
few clouds
Temperature
4°C
Dew point
1°C
Humidity
80%
QNH
1011 hPa
Weather condition
n/a

Runways

Designator Length Width Surface Rops
17/35 1880 45 ASP Yes/Yes
Airport map: 
Aerial View: 

SKYbrary Partners:

Safety knowledge contributed by: